This is the latest recevied weather packets stored in our database for station/object AI9F. If no packets are shown the sender has not sent any weather packets the latest 10 day(s).
| Time | Temp. | Humidity | Pressure | Rain* | Wind** | Luminosity | Snow |
|---|---|---|---|---|---|---|---|
| 1777979114 | 15° C | 93% | 1006.7 hPa | 0 mm | - | 2 W/m² | - |
| 1777978810 | 15° C | 93% | 1006.6 hPa | 0 mm | - | 1 W/m² | - |
| 1777978507 | 15° C | 93% | 1006.5 hPa | 0 mm | - | 1 W/m² | - |
| 1777978203 | 15° C | 93% | 1006.5 hPa | 0 mm | - | 1 W/m² | - |
| 1777977900 | 15° C | 93% | 1006.5 hPa | 0 mm | - | 0 W/m² | - |
| 1777977597 | 15° C | 93% | 1006.5 hPa | 0 mm | - | 0 W/m² | - |
| 1777977294 | 15° C | 93% | 1006.6 hPa | 0 mm | - | 0 W/m² | - |
| 1777976991 | 15° C | 93% | 1006.3 hPa | 0 mm | - | 0 W/m² | - |
| 1777976688 | 15° C | 92% | 1006.5 hPa | 0 mm | - | 0 W/m² | - |
| 1777976385 | 15° C | 92% | 1006.4 hPa | 0 mm | - | 0 W/m² | - |
| 1777976084 | 15° C | 92% | 1006.4 hPa | 0 mm | - | 0 W/m² | - |
| 1777975780 | 15° C | 92% | 1006.5 hPa | 0 mm | - | 0 W/m² | - |
| 1777975477 | 15° C | 92% | 1006.6 hPa | 1.78 mm | - | 0 W/m² | - |
| 1777975173 | 15° C | 92% | 1006.1 hPa | 3.05 mm | - | 0 W/m² | - |
| 1777974870 | 15° C | 93% | 1006.4 hPa | 1.27 mm | - | 0 W/m² | - |
| 1777974566 | 15° C | 93% | 1007 hPa | 0 mm | - | 0 W/m² | - |
| 1777974263 | 15° C | 92% | 1007.2 hPa | 0 mm | - | 0 W/m² | - |
| 1777973959 | 15° C | 92% | 1007.2 hPa | 0 mm | - | 0 W/m² | - |
| 1777973656 | 15° C | 92% | 1007.3 hPa | 0 mm | - | 0 W/m² | - |
| 1777973354 | 15° C | 93% | 1007.2 hPa | 0 mm | - | 0 W/m² | - |
| 1777973052 | 15° C | 93% | 1007.3 hPa | 0 mm | - | 0 W/m² | - |
| 1777972749 | 15° C | 92% | 1007.3 hPa | 1.78 mm | - | 0 W/m² | - |
| 1777972446 | 15.56° C | 92% | 1007.3 hPa | 1.78 mm | - | 0 W/m² | - |
| 1777972144 | 15° C | 91% | 1007.6 hPa | 0 mm | - | 0 W/m² | - |
| 1777971842 | 15.56° C | 90% | 1007.7 hPa | 0 mm | - | 0 W/m² | - |
* Rain latest hour (hover to see other rain measurements)
** Current wind speed in m/s (hover to see current wind gust speed)